Time;durP1;ratioP1;P1;durP2;ratioP2;P2;SDS_P1;SDS_P2;PMS_P1;PMS_P2;Temp;Humidity;BMP_temperature;BMP_pressure;BME280_temperature;BME280_humidity;BME280_pressure;Samples;Min_cycle;Max_cycle;Signal;HPM_P1;HPM_P2
2021/05/14 00:01:33;;;;;;;1.08;0.70;;;;;;;13.17;66.31;98540.13;4229771;33;34002;-88
2021/05/14 00:04:06;;;;;;;1.65;0.50;;;;;;;13.27;66.17;98540.41;4228017;33;35805;-96
2021/05/14 00:06:39;;;;;;;2.12;0.77;;;;;;;13.23;65.68;98518.34;4216246;34;34338;-96
2021/05/14 00:09:14;;;;;;;1.40;0.73;;;;;;;13.22;65.66;98524.00;4213135;33;33551;-96
2021/05/14 00:11:47;;;;;;;1.23;0.50;;;;;;;13.24;65.68;98533.53;4212113;33;34157;-87
2021/05/14 00:14:20;;;;;;;1.05;0.80;;;;;;;13.02;66.43;98530.59;4223367;33;34497;-96
2021/05/14 00:16:54;;;;;;;1.10;0.50;;;;;;;13.00;66.60;98529.97;4225446;33;33319;-96
2021/05/14 00:19:28;;;;;;;2.90;0.50;;;;;;;13.09;66.53;98522.31;4226115;33;32537;-96
2021/05/14 00:22:01;;;;;;;0.73;0.50;;;;;;;13.04;66.26;98525.75;4214144;34;34337;-96
2021/05/14 00:24:35;;;;;;;0.60;0.45;;;;;;;12.86;66.94;98528.53;4221931;33;37086;-96
2021/05/14 00:27:08;;;;;;;1.58;0.43;;;;;;;13.04;66.35;98531.16;4204365;34;35420;-96
2021/05/14 00:29:42;;;;;;;0.75;0.70;;;;;;;13.10;66.46;98534.84;4214791;33;34836;-93
2021/05/14 00:32:15;;;;;;;2.78;0.75;;;;;;;13.24;65.84;98540.88;4194237;34;35917;-95
2021/05/14 00:35:08;;;;;;;0.37;0.37;;;;;;;13.38;65.68;98546.91;4198896;34;34226;-96
2021/05/14 00:38:00;;;;;;;0.80;0.52;;;;;;;13.23;65.93;98545.47;4185425;34;35487;-93
2021/05/14 00:41:10;;;;;;;1.17;0.62;;;;;;;13.43;65.38;98544.34;4225758;33;34267;-92
2021/05/14 00:43:45;;;;;;;0.65;0.43;;;;;;;13.19;65.82;98541.56;4202030;33;32850;-86
2021/05/14 00:46:18;;;;;;;0.55;0.55;;;;;;;13.16;66.21;98546.63;4215212;33;34431;-86
2021/05/14 00:48:51;;;;;;;1.25;0.70;;;;;;;13.01;66.80;98536.25;4224870;33;34259;-88
2021/05/14 00:51:24;;;;;;;1.15;0.65;;;;;;;12.97;66.63;98535.84;4228069;33;33883;-87
2021/05/14 00:53:57;;;;;;;4.90;0.60;;;;;;;12.86;67.11;98542.09;4225378;33;33293;-87
2021/05/14 00:56:30;;;;;;;0.47;0.47;;;;;;;12.75;67.63;98546.41;4222304;33;33564;-88
2021/05/14 00:59:03;;;;;;;0.50;0.50;;;;;;;13.14;66.39;98546.84;4225746;33;33476;-88
2021/05/14 01:01:36;;;;;;;0.70;0.57;;;;;;;12.87;67.30;98552.72;4206130;33;32722;-92
2021/05/14 01:04:09;;;;;;;1.75;0.70;;;;;;;12.93;67.02;98555.53;4215911;34;34520;-92
2021/05/14 01:06:58;;;;;;;1.30;0.50;;;;;;;13.11;66.64;98555.47;4215811;33;35769;-93
2021/05/14 01:09:32;;;;;;;0.75;0.65;;;;;;;13.05;66.93;98565.38;4227280;33;35362;-90
2021/05/14 01:12:07;;;;;;;0.68;0.60;;;;;;;13.20;66.33;98556.78;4217323;34;33900;-88
2021/05/14 01:14:39;;;;;;;0.45;0.45;;;;;;;12.96;67.09;98560.50;4217988;34;34124;-93
2021/05/14 01:17:13;;;;;;;1.85;0.85;;;;;;;13.10;66.75;98553.81;4204887;34;35292;-94
2021/05/14 01:19:46;;;;;;;1.45;0.57;;;;;;;13.21;66.66;98558.44;4217640;34;34295;-93
2021/05/14 01:22:22;;;;;;;1.50;0.60;;;;;;;13.04;67.14;98562.91;4216272;33;34087;-87
2021/05/14 01:24:55;;;;;;;1.15;0.80;;;;;;;13.34;66.31;98559.31;4217888;34;33539;-87
2021/05/14 01:27:28;;;;;;;2.45;0.70;;;;;;;13.41;65.91;98558.16;4216532;34;35881;-93
2021/05/14 01:30:01;;;;;;;2.05;0.50;;;;;;;13.18;66.66;98558.91;4216772;33;34066;-88
2021/05/14 01:32:34;;;;;;;0.98;0.70;;;;;;;13.42;66.17;98559.78;4204778;34;33585;-87
2021/05/14 01:35:08;;;;;;;0.73;0.73;;;;;;;13.22;66.72;98559.28;4216511;34;34701;-87
2021/05/14 01:37:41;;;;;;;0.60;0.50;;;;;;;13.18;66.91;98555.38;4218425;34;33709;-94
2021/05/14 01:40:14;;;;;;;2.03;0.73;;;;;;;13.17;66.72;98554.56;4206130;34;35547;-86
2021/05/14 01:42:47;;;;;;;1.20;0.70;;;;;;;13.20;66.69;98559.50;4216823;34;33079;-89
2021/05/14 01:45:21;;;;;;;0.88;0.60;;;;;;;13.27;66.44;98556.69;4192869;34;34573;-94
2021/05/14 01:47:55;;;;;;;1.10;0.77;;;;;;;13.25;66.55;98556.91;4205682;34;35692;-86
2021/05/14 01:50:28;;;;;;;0.80;0.57;;;;;;;13.50;65.51;98558.63;4206107;34;33363;-93
2021/05/14 01:53:02;;;;;;;0.60;0.60;;;;;;;13.29;66.37;98553.72;4193667;34;34058;-86
2021/05/14 01:55:37;;;;;;;0.75;0.50;;;;;;;13.23;66.22;98556.31;4206233;34;33834;-86
2021/05/14 01:58:10;;;;;;;1.62;0.60;;;;;;;13.09;66.61;98562.19;4216736;34;34777;-87
2021/05/14 02:00:42;;;;;;;0.40;0.40;;;;;;;13.21;65.99;98558.44;4227597;33;33493;-93
2021/05/14 02:03:17;;;;;;;1.05;0.52;;;;;;;13.28;66.10;98557.50;4217984;33;32534;-87
2021/05/14 02:05:49;;;;;;;1.48;0.57;;;;;;;13.16;66.48;98562.88;4218813;33;34607;-93
2021/05/14 02:08:23;;;;;;;1.95;0.55;;;;;;;13.46;65.25;98556.59;4230606;33;34948;-93
2021/05/14 02:11:22;;;;;;;1.95;0.65;;;;;;;13.22;65.74;98560.09;4206842;33;34117;-88
2021/05/14 02:13:56;;;;;;;1.45;0.70;;;;;;;13.54;65.29;98551.66;4215305;34;32926;-87
2021/05/14 02:16:29;;;;;;;0.80;0.60;;;;;;;13.48;64.55;98560.72;4216612;34;34481;-87
2021/05/14 02:19:02;;;;;;;2.00;1.20;;;;;;;13.39;65.02;98564.88;4214430;34;34418;-86
2021/05/14 02:21:35;;;;;;;1.80;0.80;;;;;;;13.49;65.14;98558.84;4213108;34;33356;-92
2021/05/14 02:24:08;;;;;;;1.85;0.90;;;;;;;13.46;65.14;98559.31;4224857;33;35098;-94
2021/05/14 02:26:44;;;;;;;1.00;0.50;;;;;;;13.62;64.16;98563.22;4225536;33;35081;-87
2021/05/14 02:29:16;;;;;;;2.83;0.60;;;;;;;13.83;63.41;98559.94;4224531;33;33373;-87
2021/05/14 02:31:49;;;;;;;0.60;0.50;;;;;;;13.63;63.75;98564.88;4217438;33;34443;-91
2021/05/14 02:34:22;;;;;;;0.47;0.37;;;;;;;13.51;64.16;98571.13;4204220;34;34073;-92
2021/05/14 02:36:56;;;;;;;1.30;0.52;;;;;;;13.43;64.17;98571.47;4216845;34;34207;-92
2021/05/14 02:39:29;;;;;;;0.50;0.50;;;;;;;13.70;63.28;98565.59;4216523;34;34228;-87
2021/05/14 02:42:03;;;;;;;1.33;0.73;;;;;;;13.66;62.87;98569.84;4216437;34;33599;-93
2021/05/14 02:44:36;;;;;;;0.68;0.40;;;;;;;13.44;63.92;98577.72;4204021;34;34077;-88
2021/05/14 02:47:09;;;;;;;0.30;0.30;;;;;;;13.28;64.07;98571.06;4206756;34;33665;-91
2021/05/14 02:49:42;;;;;;;0.60;0.37;;;;;;;13.22;64.55;98573.66;4216105;34;35642;-87
2021/05/14 02:52:15;;;;;;;2.17;1.27;;;;;;;13.16;64.76;98576.47;4218272;34;33667;-86
2021/05/14 02:54:48;;;;;;;0.88;0.55;;;;;;;13.17;64.12;98578.97;4206454;34;34346;-91
2021/05/14 02:57:38;;;;;;;0.30;0.30;;;;;;;13.48;63.96;98584.34;4207287;34;32737;-87
2021/05/14 03:00:12;;;;;;;0.68;0.52;;;;;;;13.60;63.17;98588.72;4206109;34;33577;-93
2021/05/14 03:02:45;;;;;;;0.68;0.40;;;;;;;13.38;63.61;98587.62;4207299;34;33554;-91
2021/05/14 03:05:19;;;;;;;0.95;0.40;;;;;;;13.36;63.52;98587.84;4205911;34;34687;-91
2021/05/14 03:07:52;;;;;;;0.60;0.50;;;;;;;13.52;62.68;98578.22;4207388;34;33720;-92
2021/05/14 03:10:26;;;;;;;3.37;0.35;;;;;;;13.44;63.15;98583.97;4194649;34;34735;-93
2021/05/14 03:13:03;;;;;;;0.57;0.30;;;;;;;13.34;62.40;98581.84;4206119;34;34115;-91
2021/05/14 03:15:36;;;;;;;0.82;0.37;;;;;;;13.30;62.56;98587.94;4216041;34;32456;-87
2021/05/14 03:18:10;;;;;;;0.50;0.43;;;;;;;13.02;63.06;98578.56;4219037;34;33615;-92
2021/05/14 03:20:43;;;;;;;0.40;0.20;;;;;;;13.41;62.28;98581.72;4204103;34;34393;-88
2021/05/14 03:23:16;;;;;;;2.40;0.30;;;;;;;13.60;61.66;98583.28;4218154;34;34644;-90
2021/05/14 03:25:49;;;;;;;1.35;0.85;;;;;;;13.13;62.93;98590.50;4217723;34;33159;-87
2021/05/14 03:28:22;;;;;;;1.95;0.30;;;;;;;13.41;62.30;98600.72;4218108;34;33755;-87
2021/05/14 03:30:55;;;;;;;0.68;0.35;;;;;;;13.60;61.55;98594.12;4217318;34;34828;-91
2021/05/14 03:33:29;;;;;;;0.40;0.37;;;;;;;13.72;61.23;98604.19;4216005;34;34113;-87
2021/05/14 03:36:02;;;;;;;0.82;0.45;;;;;;;13.58;61.46;98604.41;4215435;34;35338;-91
2021/05/14 03:38:35;;;;;;;1.77;0.30;;;;;;;13.48;62.21;98612.31;4202494;34;35168;-87
2021/05/14 03:41:30;;;;;;;1.17;0.30;;;;;;;13.57;61.87;98608.19;4203791;34;33408;-88
2021/05/14 03:44:03;;;;;;;2.20;0.43;;;;;;;13.40;62.73;98609.94;4190982;34;34612;-88
2021/05/14 03:46:36;;;;;;;0.40;0.40;;;;;;;13.64;62.52;98599.94;4214776;34;33262;-93
2021/05/14 03:49:10;;;;;;;1.87;0.50;;;;;;;13.68;62.24;98611.13;4203858;34;34099;-93
2021/05/14 03:51:43;;;;;;;1.20;0.35;;;;;;;13.39;63.24;98613.72;4214145;34;34310;-90
2021/05/14 03:54:17;;;;;;;0.82;0.45;;;;;;;13.67;62.93;98609.50;4217910;34;33547;-92
2021/05/14 03:56:50;;;;;;;3.55;0.45;;;;;;;13.26;64.57;98614.69;4216050;34;35002;-90
2021/05/14 03:59:23;;;;;;;0.25;0.25;;;;;;;13.15;64.67;98613.63;4205168;34;35463;-87
2021/05/14 04:01:56;;;;;;;0.93;0.88;;;;;;;13.25;64.29;98623.91;4217506;34;32665;-87
2021/05/14 04:04:29;;;;;;;3.00;0.60;;;;;;;13.19;66.12;98625.66;4219106;34;34130;-92
2021/05/14 04:07:04;;;;;;;0.65;0.50;;;;;;;13.44;64.75;98627.41;4206925;34;33104;-86
2021/05/14 04:09:39;;;;;;;0.57;0.45;;;;;;;13.41;65.60;98623.28;4207427;34;33743;-93
2021/05/14 04:14:45;;;;;;;0.35;0.35;;;;;;;13.82;64.15;98637.00;4205420;34;33475;-92
2021/05/14 04:17:19;;;;;;;2.60;0.47;;;;;;;13.73;63.89;98630.28;4214390;34;35139;-87
2021/05/14 04:19:52;;;;;;;2.45;0.60;;;;;;;13.31;64.46;98625.69;4206725;34;33775;-89
2021/05/14 04:22:25;;;;;;;0.80;0.50;;;;;;;13.73;64.43;98630.28;4206762;34;34402;-86
2021/05/14 04:24:58;;;;;;;0.82;0.40;;;;;;;13.69;63.49;98635.34;4216317;34;35581;-87
2021/05/14 04:27:31;;;;;;;1.52;0.60;;;;;;;13.70;63.96;98630.75;4218596;34;33311;-94
2021/05/14 04:30:41;;;;;;;0.90;0.70;;;;;;;13.59;63.32;98640.53;4211896;33;33928;-93
2021/05/14 04:33:15;;;;;;;0.70;0.30;;;;;;;13.58;63.25;98644.31;4206525;34;34656;-87
2021/05/14 04:35:53;;;;;;;0.40;0.40;;;;;;;13.63;63.34;98639.00;4213405;34;34743;-87
2021/05/14 04:38:27;;;;;;;1.33;0.60;;;;;;;13.73;63.49;98641.16;4214862;34;34084;-93
2021/05/14 04:41:00;;;;;;;3.33;0.60;;;;;;;13.44;63.57;98642.88;4215436;34;33993;-86
2021/05/14 04:43:33;;;;;;;0.88;0.47;;;;;;;13.27;64.30;98637.25;4204573;34;33703;-94
2021/05/14 04:46:07;;;;;;;1.58;0.43;;;;;;;13.59;63.35;98635.94;4202103;34;33878;-92
2021/05/14 04:48:39;;;;;;;0.37;0.37;;;;;;;13.35;63.98;98639.66;4213484;34;33271;-88
2021/05/14 04:51:13;;;;;;;1.85;0.30;;;;;;;13.36;64.05;98639.41;4203061;34;34319;-93
2021/05/14 04:53:46;;;;;;;0.50;0.40;;;;;;;13.28;63.98;98644.31;4213233;34;34343;-94
2021/05/14 05:00:02;;;;;;;2.08;0.70;;;;;;;13.31;63.65;98658.25;4246757;33;34258;-90
2021/05/14 05:02:36;;;;;;;2.08;0.55;;;;;;;13.47;64.25;98640.50;4246235;33;34638;-90
2021/05/14 05:05:09;;;;;;;3.25;0.40;;;;;;;13.62;63.62;98660.94;4246274;33;33409;-92
2021/05/14 05:07:43;;;;;;;1.25;0.57;;;;;;;13.15;65.18;98654.31;4234882;33;33714;-95
2021/05/14 05:10:18;;;;;;;0.50;0.50;;;;;;;13.40;65.31;98659.63;4234692;33;33793;-94
2021/05/14 05:12:55;;;;;;;0.40;0.40;;;;;;;13.40;64.53;98656.09;4235764;33;33049;-94
2021/05/14 05:15:28;;;;;;;1.00;0.50;;;;;;;13.40;64.74;98658.78;4233037;33;34372;-86
2021/05/14 05:18:01;;;;;;;0.93;0.57;;;;;;;13.40;63.94;98661.50;4246836;33;33631;-90
2021/05/14 05:20:34;;;;;;;1.05;0.60;;;;;;;13.37;63.28;98659.25;4235381;33;33245;-96
2021/05/14 05:23:08;;;;;;;0.60;0.60;;;;;;;13.36;63.44;98663.03;4232531;33;34516;-93
2021/05/14 05:25:44;;;;;;;1.52;0.50;;;;;;;13.59;62.72;98668.50;4210459;33;35762;-88
2021/05/14 05:28:29;;;;;;;0.50;0.40;;;;;;;13.58;63.45;98671.47;4245355;33;33750;-88
2021/05/14 05:31:02;;;;;;;0.77;0.60;;;;;;;13.63;63.01;98673.47;4234343;33;33956;-89
2021/05/14 05:33:35;;;;;;;1.25;0.60;;;;;;;13.25;63.51;98683.63;4246793;33;33853;-89
2021/05/14 05:36:08;;;;;;;0.90;0.62;;;;;;;13.49;63.60;98700.81;4231925;33;34493;-96
2021/05/14 05:38:46;;;;;;;1.12;0.60;;;;;;;13.21;63.99;98694.06;4200227;33;33918;-96
2021/05/14 05:41:33;;;;;;;;;;;;;;;;;;;;;
2021/05/14 05:44:22;;;;;;;0.90;0.60;;;;;;;13.18;65.26;98699.16;4214264;33;34993;-89
2021/05/14 05:46:59;;;;;;;3.25;0.60;;;;;;;13.14;64.62;98687.91;4222367;33;33764;-94
2021/05/14 05:49:33;;;;;;;1.25;0.50;;;;;;;13.21;65.42;98694.06;4220413;33;34055;-87
2021/05/14 05:52:06;;;;;;;0.60;0.60;;;;;;;13.76;nan;98697.69;4209325;33;35837;-87
2021/05/14 05:54:39;;;;;;;0.90;0.70;;;;;;;14.10;63.55;98704.22;4232690;33;33223;-88
2021/05/14 05:57:12;;;;;;;0.70;0.65;;;;;;;14.03;62.95;98710.84;4233136;33;33802;-96
2021/05/14 05:59:46;;;;;;;0.88;0.73;;;;;;;13.73;63.69;98709.84;4221556;33;34344;-91
2021/05/14 06:02:19;;;;;;;0.60;0.45;;;;;;;14.09;62.74;98712.63;4235745;33;32932;-93
2021/05/14 06:04:57;;;;;;;1.30;0.62;;;;;;;13.89;62.60;98707.50;4224423;33;33831;-95
2021/05/14 06:07:30;;;;;;;1.15;0.73;;;;;;;13.76;62.84;98701.22;4214173;33;33810;-94
2021/05/14 06:10:08;;;;;;;0.40;0.40;;;;;;;13.77;63.57;98711.03;4222489;33;33793;-94
2021/05/14 06:12:41;;;;;;;1.75;0.55;;;;;;;13.95;62.12;98712.00;4224496;33;33283;-90
2021/05/14 06:15:14;;;;;;;1.92;0.40;;;;;;;13.91;62.71;98717.09;4234539;33;33769;-87
2021/05/14 06:17:49;;;;;;;1.05;0.82;;;;;;;14.12;62.47;98709.44;4234820;33;33608;-88
2021/05/14 06:20:24;;;;;;;0.90;0.80;;;;;;;13.87;62.95;98721.31;4234811;33;34448;-94
2021/05/14 06:22:57;;;;;;;1.85;0.75;;;;;;;14.16;63.14;98721.50;4233485;33;32578;-88
2021/05/14 06:25:31;;;;;;;0.75;0.70;;;;;;;13.98;63.36;98727.00;4247228;33;33622;-94
2021/05/14 06:28:07;;;;;;;1.55;1.12;;;;;;;14.39;62.30;98731.53;4211060;33;34720;-87
2021/05/14 06:30:45;;;;;;;2.15;0.50;;;;;;;14.67;61.36;98726.44;4221966;33;35232;-87
2021/05/14 06:33:18;;;;;;;2.60;0.85;;;;;;;14.57;61.12;98733.28;4245712;33;33131;-92
2021/05/14 06:35:51;;;;;;;1.48;0.90;;;;;;;14.28;62.06;98744.06;4221259;33;34728;-92
2021/05/14 06:38:24;;;;;;;0.62;0.62;;;;;;;13.99;62.55;98750.41;4222519;33;33640;-88
2021/05/14 06:41:00;;;;;;;5.65;1.20;;;;;;;14.13;63.48;98743.66;4244701;33;34285;-88
2021/05/14 06:43:34;;;;;;;0.70;0.70;;;;;;;14.11;63.53;98757.50;4223930;33;33762;-88
2021/05/14 06:46:08;;;;;;;0.98;0.70;;;;;;;14.04;62.84;98750.50;4241433;33;33531;-88
2021/05/14 06:48:46;;;;;;;2.70;0.80;;;;;;;14.29;62.96;98753.84;4227959;33;33724;-94
2021/05/14 06:51:20;;;;;;;0.77;0.77;;;;;;;14.77;63.39;98753.84;4239177;33;33748;-95
2021/05/14 06:53:56;;;;;;;0.80;0.80;;;;;;;14.47;62.81;98757.50;4217533;33;33439;-96
2021/05/14 06:56:36;;;;;;;1.08;1.02;;;;;;;14.45;62.31;98762.38;4223756;33;35010;-96
2021/05/14 06:59:10;;;;;;;1.02;0.93;;;;;;;14.49;62.78;98758.13;4242541;33;33651;-96
2021/05/14 07:02:20;;;;;;;1.10;1.00;;;;;;;14.25;62.42;98758.13;3911605;28;35172;-94
2021/05/14 07:04:53;;;;;;;2.90;0.98;;;;;;;14.24;62.97;98761.88;4229452;33;33803;-94
2021/05/14 07:07:27;;;;;;;0.93;0.82;;;;;;;14.51;63.89;98760.59;4234777;33;34712;-96
2021/05/14 07:10:00;;;;;;;5.50;0.77;;;;;;;14.41;63.84;98758.47;4234041;33;34093;-94
2021/05/14 07:12:35;;;;;;;1.90;1.00;;;;;;;14.48;64.32;98768.16;4244995;33;34562;-96
2021/05/14 07:15:10;;;;;;;1.87;1.05;;;;;;;14.15;65.17;98771.44;4233363;33;34748;-96
2021/05/14 07:17:43;;;;;;;2.17;1.50;;;;;;;13.91;65.38;98768.69;4245035;33;33717;-95
2021/05/14 07:20:16;;;;;;;1.20;1.10;;;;;;;14.22;65.21;98779.47;4230404;33;33741;-94
2021/05/14 07:22:51;;;;;;;2.70;1.08;;;;;;;14.42;65.60;98792.75;4232665;33;33760;-96
2021/05/14 07:25:25;;;;;;;1.83;1.10;;;;;;;14.02;66.40;98774.37;4235075;33;33551;-95
2021/05/14 07:28:21;;;;;;;2.20;1.20;;;;;;;14.53;66.38;98782.94;4165120;28;36024;-94
2021/05/14 07:30:55;;;;;;;4.03;1.15;;;;;;;14.75;65.22;98778.56;4209654;34;34420;-96
2021/05/14 07:33:28;;;;;;;1.52;0.95;;;;;;;14.43;65.26;98781.63;4234255;33;34529;-96
2021/05/14 07:36:04;;;;;;;1.42;0.98;;;;;;;14.61;64.90;98785.31;4218255;33;34231;-94
2021/05/14 07:38:38;;;;;;;1.08;0.95;;;;;;;14.67;64.39;98792.56;4220939;33;33962;-95
2021/05/14 07:41:11;;;;;;;3.33;1.25;;;;;;;14.09;64.48;98789.50;4221019;33;35684;-96
2021/05/14 07:43:54;;;;;;;1.77;1.00;;;;;;;14.25;66.58;98790.72;4220484;33;34616;-96
2021/05/14 07:46:28;;;;;;;2.15;1.45;;;;;;;14.70;66.18;98791.22;4212033;33;34051;-89
2021/05/14 07:49:01;;;;;;;8.88;1.48;;;;;;;14.81;65.33;98788.50;4230875;33;32305;-94
2021/05/14 07:51:35;;;;;;;1.42;0.98;;;;;;;14.91;64.03;98795.22;4221893;33;35489;-88
2021/05/14 07:54:11;;;;;;;1.77;1.12;;;;;;;14.72;63.95;98786.41;4232400;33;33683;-88
2021/05/14 07:56:44;;;;;;;5.37;1.20;;;;;;;14.93;65.81;98791.22;4218697;33;33392;-88
2021/05/14 07:59:17;;;;;;;1.40;1.30;;;;;;;15.44;64.44;98806.94;4230360;33;34495;-96
2021/05/14 08:01:50;;;;;;;3.90;1.10;;;;;;;15.60;65.18;98789.84;4220257;33;34547;-96
2021/05/14 08:04:36;;;;;;;1.77;0.80;;;;;;;15.46;64.08;98802.06;4208584;33;32565;-89
2021/05/14 08:07:19;;;;;;;2.12;1.52;;;;;;;15.34;63.85;98800.25;4238739;33;33259;-96
2021/05/14 08:10:05;;;;;;;0.93;0.90;;;;;;;15.48;64.67;98802.69;4221520;33;33681;-95
2021/05/14 08:12:38;;;;;;;1.00;0.90;;;;;;;14.93;63.15;98814.88;4217430;33;35000;-94
2021/05/14 08:15:33;;;;;;;3.53;1.15;;;;;;;14.39;65.97;98813.06;4230386;33;34670;-95
2021/05/14 08:18:09;;;;;;;2.05;1.20;;;;;;;14.37;64.49;98822.50;4240376;33;33744;-96
2021/05/14 08:21:14;;;;;;;0.82;0.70;;;;;;;14.04;65.12;98821.16;3778211;33;35995;-89
2021/05/14 08:23:47;;;;;;;1.30;0.75;;;;;;;14.17;66.82;98837.25;4203886;34;33472;-95
2021/05/14 08:26:24;;;;;;;0.95;0.62;;;;;;;13.88;64.25;98822.66;4184866;34;34025;-88
2021/05/14 08:28:57;;;;;;;0.68;0.60;;;;;;;13.78;64.26;98824.03;4206114;34;33106;-88
2021/05/14 08:31:39;;;;;;;0.55;0.50;;;;;;;13.99;64.16;98829.19;4218395;34;34712;-94
2021/05/14 08:34:12;;;;;;;0.50;0.50;;;;;;;13.85;63.83;98823.94;4188807;34;34507;-93
2021/05/14 08:36:48;;;;;;;2.62;0.60;;;;;;;13.76;65.94;98836.19;4197581;34;33945;-89
2021/05/14 08:39:32;;;;;;;4.87;0.80;;;;;;;13.97;65.86;98839.44;4217516;34;33634;-87
2021/05/14 08:42:06;;;;;;;2.78;0.95;;;;;;;13.77;66.28;98837.81;4201478;34;34699;-88
2021/05/14 08:44:39;;;;;;;2.17;1.20;;;;;;;14.12;66.93;98845.28;4217874;34;33910;-96
2021/05/14 08:47:26;;;;;;;1.10;1.00;;;;;;;14.29;66.83;98843.53;4209408;33;35599;-94
2021/05/14 08:50:00;;;;;;;2.65;1.42;;;;;;;14.61;65.92;98840.53;4211907;34;33733;-95
2021/05/14 08:53:37;;;;;;;2.22;1.33;;;;;;;14.47;66.26;98858.09;4170247;28;35809;-92
2021/05/14 08:56:10;;;;;;;1.40;1.30;;;;;;;14.48;66.82;98848.91;4220797;33;34691;-89
2021/05/14 08:58:44;;;;;;;1.10;0.95;;;;;;;14.83;64.50;98853.53;4236447;33;33629;-95
2021/05/14 09:01:16;;;;;;;3.78;0.90;;;;;;;14.88;64.43;98856.41;4213553;33;33423;-88
2021/05/14 09:03:58;;;;;;;1.12;0.80;;;;;;;15.49;63.59;98858.78;4245580;33;34589;-89
2021/05/14 09:06:42;;;;;;;0.68;0.68;;;;;;;15.93;61.01;98847.38;4241313;33;33234;-96
2021/05/14 09:09:25;;;;;;;0.73;0.60;;;;;;;16.13;59.82;98858.66;4221250;33;34030;-95
2021/05/14 09:11:58;;;;;;;1.58;0.80;;;;;;;15.18;61.73;98867.13;4219050;33;33743;-88
2021/05/14 09:14:39;;;;;;;0.70;0.70;;;;;;;16.08;60.50;98864.03;4219639;33;34473;-95
2021/05/14 09:17:17;;;;;;;1.60;0.88;;;;;;;16.27;59.34;98864.63;4216330;33;34678;-96
2021/05/14 09:20:05;;;;;;;1.12;0.90;;;;;;;16.24;59.92;98870.56;4210323;34;35009;-94
2021/05/14 09:26:13;;;;;;;0.88;0.80;;;;;;;16.83;59.79;98863.91;4156431;33;37190;-95
2021/05/14 09:28:48;;;;;;;3.70;1.77;;;;;;;15.98;59.05;98878.28;4221162;33;33588;-88
2021/05/14 09:31:27;;;;;;;4.35;2.20;;;;;;;15.87;60.21;98871.00;4223377;33;33806;-87
2021/05/14 09:34:02;;;;;;;5.00;1.83;;;;;;;15.76;59.92;98882.72;4234903;33;33231;-93
2021/05/14 09:36:35;;;;;;;8.15;1.67;;;;;;;15.62;60.63;98879.47;4217538;33;35018;-92
2021/05/14 09:39:08;;;;;;;1.60;1.30;;;;;;;15.75;60.47;98878.34;4205324;34;34847;-94
2021/05/14 09:41:46;;;;;;;2.03;0.90;;;;;;;16.20;57.42;98878.44;4215243;33;34080;-96
2021/05/14 09:44:24;;;;;;;1.62;1.30;;;;;;;15.74;60.37;98858.47;4217698;33;33659;-91
2021/05/14 09:46:58;;;;;;;2.45;0.85;;;;;;;15.42;59.98;98879.84;4222297;33;35583;-91
2021/05/14 09:49:33;;;;;;;1.20;1.00;;;;;;;15.04;61.09;98883.94;4235046;33;33752;-96
2021/05/14 09:52:13;;;;;;;1.30;1.20;;;;;;;15.25;61.75;98882.50;4227345;33;36315;-88
2021/05/14 09:54:46;;;;;;;2.17;1.00;;;;;;;15.35;61.31;98889.00;4220507;33;33206;-88
2021/05/14 09:57:41;;;;;;;2.45;1.17;;;;;;;15.25;61.86;98899.66;4233944;33;34843;-91
2021/05/14 10:00:15;;;;;;;1.30;1.20;;;;;;;15.71;63.56;98892.44;4236930;33;34724;-91
2021/05/14 10:02:48;;;;;;;2.45;1.30;;;;;;;15.39;62.20;98902.13;4219939;33;35687;-92
2021/05/14 10:05:22;;;;;;;1.62;1.45;;;;;;;15.54;62.19;98894.28;4215147;33;32861;-94
2021/05/14 10:08:05;;;;;;;5.18;1.37;;;;;;;15.58;61.43;98892.72;4214969;33;32863;-96
2021/05/14 10:10:39;;;;;;;2.62;0.90;;;;;;;15.15;60.76;98896.72;4221894;33;34222;-94
2021/05/14 10:13:14;;;;;;;2.20;1.30;;;;;;;15.33;61.00;98898.47;4208903;33;33519;-95
2021/05/14 10:15:47;;;;;;;2.15;1.00;;;;;;;14.95;60.62;98903.31;4226871;33;34142;-94
2021/05/14 10:18:25;;;;;;;14.75;1.42;;;;;;;14.71;61.59;98890.78;4219994;33;32605;-92
2021/05/14 10:21:42;;;;;;;1.08;0.60;;;;;;;14.67;60.61;98904.03;4184100;33;1244864;-95
2021/05/14 10:24:51;;;;;;;3.25;0.95;;;;;;;14.75;61.25;98902.87;4229796;33;33027;-95
2021/05/14 10:27:27;;;;;;;0.98;0.70;;;;;;;14.88;60.67;98899.91;4221204;33;33741;-96
2021/05/14 10:30:16;;;;;;;2.00;1.75;;;;;;;15.21;61.60;98898.50;4218093;33;35208;-95
2021/05/14 10:32:54;;;;;;;1.75;1.12;;;;;;;14.85;60.27;98902.25;4225135;33;33897;-93
2021/05/14 10:35:34;;;;;;;3.87;1.00;;;;;;;15.38;59.61;98897.75;4196813;33;35857;-96
2021/05/14 10:38:14;;;;;;;4.28;0.98;;;;;;;16.18;58.67;98887.91;4207983;33;33929;-96
2021/05/14 10:40:49;;;;;;;1.92;1.10;;;;;;;17.30;56.14;98890.81;4216611;33;34016;-96
2021/05/14 10:44:10;;;;;;;1.48;0.80;;;;;;;17.35;54.79;98887.31;4216794;34;34140;-96
2021/05/14 10:47:25;;;;;;;1.08;0.90;;;;;;;16.48;55.98;98897.69;4218480;33;32865;-91
2021/05/14 10:50:04;;;;;;;0.90;0.82;;;;;;;16.56;56.99;98889.13;4222196;33;34155;-96
2021/05/14 10:53:36;;;;;;;1.20;1.10;;;;;;;15.80;58.48;98901.09;4213037;34;33868;-94
2021/05/14 10:56:12;;;;;;;3.45;1.12;;;;;;;15.48;58.37;98917.03;4216766;34;33758;-95
2021/05/14 10:59:02;;;;;;;2.40;1.25;;;;;;;14.99;60.54;98918.13;4211159;33;35842;-94
2021/05/14 11:01:40;;;;;;;1.08;0.98;;;;;;;14.59;61.37;98926.91;4221159;33;33274;-95
2021/05/14 11:04:19;;;;;;;2.42;1.40;;;;;;;14.86;61.14;98926.50;4202778;34;34793;-95
2021/05/14 11:06:54;;;;;;;4.18;1.20;;;;;;;15.40;61.29;98925.56;4211489;33;34355;-96
2021/05/14 11:09:40;;;;;;;2.25;0.85;;;;;;;15.17;60.28;98921.81;4212099;33;34679;-95
2021/05/14 11:12:29;;;;;;;2.03;1.00;;;;;;;15.45;59.80;98931.09;4224182;33;33666;-94
2021/05/14 11:15:28;;;;;;;3.10;1.35;;;;;;;15.06;60.19;98926.19;4209700;33;34514;-96
2021/05/14 11:18:24;;;;;;;1.95;1.05;;;;;;;14.81;61.34;98923.69;4229322;33;34722;-96
2021/05/14 11:21:18;;;;;;;2.45;0.80;;;;;;;15.42;59.85;98929.72;4210061;33;34494;-96
2021/05/14 11:24:08;;;;;;;2.70;0.85;;;;;;;15.76;57.36;98926.31;4212983;33;33584;-96
2021/05/14 11:27:13;;;;;;;1.15;1.00;;;;;;;15.99;56.73;98920.81;4214062;34;33977;-96
2021/05/14 11:30:17;;;;;;;0.95;0.75;;;;;;;16.84;55.55;98918.25;4211177;34;34211;-96
2021/05/14 11:33:24;;;;;;;1.33;0.52;;;;;;;17.99;52.92;98906.72;4249202;33;34741;-95
2021/05/14 11:35:57;;;;;;;2.08;0.75;;;;;;;17.90;50.75;98907.44;4237232;33;34405;-95
2021/05/14 11:38:56;;;;;;;1.55;0.68;;;;;;;17.63;49.85;98909.00;4182261;34;34199;-96
2021/05/14 11:41:32;;;;;;;0.88;0.60;;;;;;;18.27;50.20;98904.81;4193142;34;34076;-94
2021/05/14 11:44:15;;;;;;;0.95;0.80;;;;;;;18.44;49.92;98912.94;4190784;34;34844;-94
2021/05/14 11:46:56;;;;;;;0.50;0.50;;;;;;;17.86;51.80;98918.03;4186303;34;33090;-89
2021/05/14 11:49:36;;;;;;;2.12;1.35;;;;;;;17.87;50.45;98910.66;4189453;34;33738;-90
2021/05/14 11:52:09;;;;;;;0.60;0.60;;;;;;;17.22;52.46;98907.62;4192495;34;34821;-88
2021/05/14 11:54:43;;;;;;;1.15;0.75;;;;;;;17.56;51.95;98915.72;4180612;34;34167;-93
2021/05/14 11:57:29;;;;;;;0.93;0.70;;;;;;;18.08;49.78;98909.81;4192412;34;32960;-92
2021/05/14 12:00:08;;;;;;;1.45;1.05;;;;;;;18.73;49.47;98907.16;4190632;34;33770;-90
2021/05/14 12:02:44;;;;;;;1.50;0.40;;;;;;;18.91;48.29;98913.31;4192655;34;34274;-91
2021/05/14 12:05:21;;;;;;;1.25;0.40;;;;;;;18.95;47.15;98906.25;4190975;34;34296;-91
2021/05/14 12:08:28;;;;;;;2.30;0.80;;;;;;;18.49;47.89;98918.44;4192639;34;34140;-92
2021/05/14 12:11:03;;;;;;;0.73;0.50;;;;;;;18.10;49.83;98915.03;4176344;34;34696;-92
2021/05/14 12:13:53;;;;;;;0.68;0.68;;;;;;;19.23;48.86;98911.34;4216309;34;34439;-96
2021/05/14 12:16:35;;;;;;;3.10;0.50;;;;;;;19.76;46.70;98916.03;4214297;33;33597;-92
2021/05/14 12:19:48;;;;;;;4.32;0.60;;;;;;;20.16;45.68;98925.50;4030207;33;32481;-96
2021/05/14 12:22:20;;;;;;;0.90;0.60;;;;;;;20.03;45.11;98926.00;4203019;34;33423;-90
2021/05/14 12:24:56;;;;;;;0.50;0.50;;;;;;;20.22;44.46;98924.41;4203207;34;34552;-93
2021/05/14 12:27:47;;;;;;;0.73;0.65;;;;;;;19.55;46.30;98915.94;4198519;34;34348;-89
2021/05/14 12:30:20;;;;;;;0.75;0.43;;;;;;;20.10;45.52;98916.44;4203692;34;34186;-92
2021/05/14 12:32:57;;;;;;;0.70;0.47;;;;;;;19.39;45.06;98922.41;4214259;33;32966;-91
2021/05/14 12:35:47;;;;;;;;;;;;;;;19.54;44.28;98918.94;4214560;33;35080;-92